Back to Top

Language: 

My Weather Underground Personal Weather Station Historical Data with Graphs...

Delerius Weather Station Historical Data
Daily Summary for April 3, 2017 Units:  English    Metric   Both
« Previous Day
Next Day »
Daily Weekly Monthly Yearly Custom
  High: Low: Average:
Temperature: 61.9 °F 36.9 °F 50.5 °F
Dew Point: 45.5 °F 34.9 °F 40.6 °F
Humidity: 95 % 46 % 71 %
Wind Speed: 16.0 mph 0.0 mph 5.7 mph
Wind Gust: 28.0 mph - -
Wind:- - SSW
Pressure: 30.27 in 30.10 in -
Precipitation: 0.00 in    
Historical Graphs
 
 
Tabular Data for April 3, 2017
Time Temperature Dew Point Pressure Wind Wind Speed Wind Gust Humidity Rainfall Rate (Hourly) solar Conditions
00:03 42.6 °F 39.0 °F 30.27 in Calm     87 % 0.00 in 0 W/m2
00:08 42.4 °F 38.8 °F 30.27 in Calm     87 % 0.00 in 0 W/m2
00:13 42.4 °F 38.8 °F 30.27 in Calm     87 % 0.00 in 0 W/m2
00:18 42.3 °F 38.7 °F 30.27 in Calm   1.0 mph 87 % 0.00 in 0 W/m2
00:23 42.1 °F 38.8 °F 30.27 in Calm   1.0 mph 88 % 0.00 in 0 W/m2
00:28 42.1 °F 38.8 °F 30.27 in Calm     88 % 0.00 in 0 W/m2
00:33 41.7 °F 38.4 °F 30.27 in Calm     88 % 0.00 in 0 W/m2
00:38 41.5 °F 38.3 °F 30.27 in Calm     88 % 0.00 in 0 W/m2
00:43 41.4 °F 38.1 °F 30.27 in Calm     88 % 0.00 in 0 W/m2
00:49 41.2 °F 37.9 °F 30.27 in Calm     88 % 0.00 in 0 W/m2
00:54 40.8 °F 37.5 °F 30.27 in Calm     88 % 0.00 in 0 W/m2
00:59 40.6 °F 37.7 °F 30.27 in Calm     89 % 0.00 in 0 W/m2
01:04 40.6 °F 37.7 °F 30.27 in Calm     89 % 0.00 in 0 W/m2
01:09 40.5 °F 37.5 °F 30.27 in Calm     89 % 0.00 in 0 W/m2
01:14 40.3 °F 37.3 °F 30.27 in Calm     89 % 0.00 in 0 W/m2
01:19 40.1 °F 37.1 °F 30.27 in Calm     89 % 0.00 in 0 W/m2
01:24 39.9 °F 37.2 °F 30.27 in Calm     90 % 0.00 in 0 W/m2
01:29 39.7 °F 37.0 °F 30.27 in Calm     90 % 0.00 in 0 W/m2
01:34 39.6 °F 36.9 °F 30.27 in Calm     90 % 0.00 in 0 W/m2
01:39 39.6 °F 36.9 °F 30.27 in Calm     90 % 0.00 in 0 W/m2
01:44 39.4 °F 36.7 °F 30.26 in Calm     90 % 0.00 in 0 W/m2
01:49 39.2 °F 36.5 °F 30.26 in Calm     90 % 0.00 in 0 W/m2
01:54 39.2 °F 36.8 °F 30.26 in Calm     91 % 0.00 in 0 W/m2
01:59 39.0 °F 36.6 °F 30.26 in Calm     91 % 0.00 in 0 W/m2
02:04 39.0 °F 36.6 °F 30.26 in Calm     91 % 0.00 in 0 W/m2
02:09 39.0 °F 36.6 °F 30.26 in Calm     91 % 0.00 in 0 W/m2
02:14 39.0 °F 36.6 °F 30.26 in Calm     91 % 0.00 in 0 W/m2
02:19 39.0 °F 36.6 °F 30.26 in Calm     91 % 0.00 in 0 W/m2
02:24 38.8 °F 36.4 °F 30.26 in Calm     91 % 0.00 in 0 W/m2
02:26 38.7 °F 36.3 °F 30.26 in Calm     91 % 0.00 in 0 W/m2
02:31 38.5 °F 36.1 °F 30.26 in Calm     91 % 0.00 in 0 W/m2
02:36 38.5 °F 36.1 °F 30.26 in Calm     91 % 0.00 in 0 W/m2
02:41 38.1 °F 35.7 °F 30.26 in Calm     91 % 0.00 in 0 W/m2
02:44 38.1 °F 35.7 °F 30.26 in Calm     91 % 0.00 in 0 W/m2
02:49 37.9 °F 35.5 °F 30.26 in Calm     91 % 0.00 in 0 W/m2
02:54 37.9 °F 35.5 °F 30.26 in Calm     91 % 0.00 in 0 W/m2
02:59 37.8 °F 35.4 °F 30.26 in Calm     91 % 0.00 in 0 W/m2
03:04 37.6 °F 35.5 °F 30.25 in Calm     92 % 0.00 in 0 W/m2
03:09 37.6 °F 35.5 °F 30.26 in Calm     92 % 0.00 in 0 W/m2
03:10 37.6 °F 35.5 °F 30.26 in Calm     92 % 0.00 in 0 W/m2
03:15 37.4 °F 35.3 °F 30.25 in Calm     92 % 0.00 in 0 W/m2
03:20 37.2 °F 35.1 °F 30.25 in Calm     92 % 0.00 in 0 W/m2
03:25 37.2 °F 35.1 °F 30.25 in Calm     92 % 0.00 in 0 W/m2
03:30 37.0 °F 34.9 °F 30.25 in Calm     92 % 0.00 in 0 W/m2
03:32 37.0 °F 34.9 °F 30.25 in Calm     92 % 0.00 in 0 W/m2
03:37 37.0 °F 34.9 °F 30.25 in Calm     92 % 0.00 in 0 W/m2
03:42 36.9 °F 35.0 °F 30.25 in Calm     93 % 0.00 in 0 W/m2
03:47 36.9 °F 35.0 °F 30.25 in Calm     93 % 0.00 in 0 W/m2
03:52 37.0 °F 35.2 °F 30.25 in Calm     93 % 0.00 in 0 W/m2
03:57 37.0 °F 35.2 °F 30.25 in Calm     93 % 0.00 in 0 W/m2
04:02 37.0 °F 35.2 °F 30.25 in Calm     93 % 0.00 in 0 W/m2
04:07 37.0 °F 35.2 °F 30.25 in Calm     93 % 0.00 in 0 W/m2
04:12 36.9 °F 35.0 °F 30.25 in Calm     93 % 0.00 in 0 W/m2
04:17 36.9 °F 35.0 °F 30.25 in Calm     93 % 0.00 in 0 W/m2
04:22 37.0 °F 35.2 °F 30.24 in Calm     93 % 0.00 in 0 W/m2
04:27 37.0 °F 35.2 °F 30.24 in Calm     93 % 0.00 in 0 W/m2
04:32 37.0 °F 35.2 °F 30.24 in Calm     93 % 0.00 in 0 W/m2
04:37 37.2 °F 35.7 °F 30.24 in Calm     94 % 0.00 in 0 W/m2
04:42 37.6 °F 36.0 °F 30.24 in Calm   2.0 mph 94 % 0.00 in 0 W/m2
04:47 37.8 °F 36.2 °F 30.24 in Calm   2.0 mph 94 % 0.00 in 0 W/m2
04:52 37.9 °F 36.4 °F 30.24 in Calm   1.0 mph 94 % 0.00 in 0 W/m2
04:57 37.9 °F 36.4 °F 30.24 in Calm   1.0 mph 94 % 0.00 in 0 W/m2
05:02 38.1 °F 36.5 °F 30.24 in Calm     94 % 0.00 in 0 W/m2
05:07 38.1 °F 36.5 °F 30.24 in Calm     94 % 0.00 in 0 W/m2
05:12 37.9 °F 36.4 °F 30.24 in Calm     94 % 0.00 in 0 W/m2
05:18 37.8 °F 35.9 °F 30.24 in Calm     93 % 0.00 in 0 W/m2
05:23 37.6 °F 35.7 °F 30.24 in Calm     93 % 0.00 in 0 W/m2
05:28 37.6 °F 35.7 °F 30.24 in Calm     93 % 0.00 in 0 W/m2
05:33 37.6 °F 35.7 °F 30.24 in Calm     93 % 0.00 in 0 W/m2
05:38 37.6 °F 36.0 °F 30.24 in Calm   2.0 mph 94 % 0.00 in 0 W/m2
05:43 37.6 °F 35.7 °F 30.24 in Calm   2.0 mph 93 % 0.00 in 0 W/m2
05:48 37.6 °F 35.7 °F 30.24 in Calm     93 % 0.00 in 0 W/m2
05:53 37.6 °F 35.7 °F 30.24 in Calm   1.0 mph 93 % 0.00 in 0 W/m2
05:58 37.6 °F 36.0 °F 30.24 in Calm   1.0 mph 94 % 0.00 in 0 W/m2
06:03 37.8 °F 36.2 °F 30.24 in Calm   1.0 mph 94 % 0.00 in 0 W/m2
06:08 37.9 °F 36.4 °F 30.24 in Calm   2.0 mph 94 % 0.00 in 0 W/m2
06:13 38.1 °F 36.5 °F 30.24 in Calm   2.0 mph 94 % 0.00 in 0 W/m2
06:18 38.1 °F 36.5 °F 30.23 in Calm     94 % 0.00 in 0 W/m2
06:23 38.1 °F 36.5 °F 30.23 in Calm     94 % 0.00 in 5 W/m2
06:28 38.1 °F 36.5 °F 30.23 in Calm     94 % 0.00 in 7 W/m2
06:33 38.1 °F 36.5 °F 30.23 in Calm     94 % 0.00 in 9 W/m2
06:38 37.9 °F 36.4 °F 30.23 in Calm     94 % 0.00 in 11 W/m2
06:43 38.1 °F 36.5 °F 30.23 in Calm   1.0 mph 94 % 0.00 in 12 W/m2
06:48 38.3 °F 36.7 °F 30.23 in Calm   1.0 mph 94 % 0.00 in 16 W/m2
06:53 38.5 °F 36.9 °F 30.23 in Calm   1.0 mph 94 % 0.00 in 19 W/m2
06:58 38.7 °F 37.1 °F 30.23 in Calm   1.0 mph 94 % 0.00 in 25 W/m2
07:03 38.8 °F 37.3 °F 30.23 in Calm   1.0 mph 94 % 0.00 in 28 W/m2
07:08 39.0 °F 37.4 °F 30.23 in Calm     94 % 0.00 in 30 W/m2
07:13 39.2 °F 37.6 °F 30.23 in Calm   1.0 mph 94 % 0.00 in 33 W/m2
07:18 39.0 °F 37.2 °F 30.24 in Calm   4.0 mph 93 % 0.00 in 37 W/m2
07:23 39.0 °F 37.2 °F 30.24 in Calm   4.0 mph 93 % 0.00 in 39 W/m2
07:28 39.0 °F 37.2 °F 30.23 in Calm     93 % 0.00 in 42 W/m2
07:29 39.0 °F 37.2 °F 30.23 in Calm     93 % 0.00 in 44 W/m2
07:34 39.4 °F 37.5 °F 30.24 in Calm     93 % 0.00 in 46 W/m2
07:39 39.6 °F 38.0 °F 30.23 in Calm     94 % 0.00 in 51 W/m2
07:45 39.7 °F 38.2 °F 30.23 in Calm     94 % 0.00 in 58 W/m2
07:50 39.9 °F 38.3 °F 30.23 in Calm     94 % 0.00 in 62 W/m2
07:51 40.1 °F 38.5 °F 30.23 in Calm     94 % 0.00 in 63 W/m2
07:56 40.5 °F 38.9 °F 30.23 in Calm     94 % 0.00 in 67 W/m2
08:01 40.8 °F 39.2 °F 30.23 in Calm   2.0 mph 94 % 0.00 in 70 W/m2
08:06 41.4 °F 39.8 °F 30.23 in Calm   2.0 mph 94 % 0.00 in 178 W/m2
08:11 42.1 °F 40.5 °F 30.23 in Calm   2.0 mph 94 % 0.00 in 199 W/m2
08:16 43.0 °F 41.6 °F 30.23 in Calm   2.0 mph 95 % 0.00 in 211 W/m2
08:21 44.1 °F 42.4 °F 30.23 in Calm   2.0 mph 94 % 0.00 in 239 W/m2
08:26 45.1 °F 43.0 °F 30.23 in SSE 1.0 mph 4.0 mph 92 % 0.00 in 258 W/m2
08:31 46.0 °F 43.3 °F 30.23 in South 2.0 mph 9.0 mph 90 % 0.00 in 244 W/m2
08:36 46.9 °F 43.0 °F 30.23 in SSW 4.0 mph 13.0 mph 86 % 0.00 in 264 W/m2
08:41 47.8 °F 42.9 °F 30.23 in SSW 6.0 mph 13.0 mph 83 % 0.00 in 265 W/m2
08:46 48.6 °F 42.7 °F 30.23 in SSW 7.0 mph 11.0 mph 80 % 0.00 in 260 W/m2
08:51 49.1 °F 42.5 °F 30.23 in SSW 6.0 mph 9.0 mph 78 % 0.00 in 279 W/m2
08:56 49.6 °F 42.7 °F 30.23 in SSW 5.0 mph 8.0 mph 77 % 0.00 in 285 W/m2
09:01 50.2 °F 42.9 °F 30.23 in SW 4.0 mph 8.0 mph 76 % 0.00 in 315 W/m2
09:06 50.5 °F 42.9 °F 30.23 in SW 4.0 mph 8.0 mph 75 % 0.00 in 338 W/m2
09:11 51.1 °F 42.7 °F 30.23 in SW 4.0 mph 9.0 mph 73 % 0.00 in 385 W/m2
09:16 51.4 °F 41.6 °F 30.23 in SSW 6.0 mph 12.0 mph 69 % 0.00 in 388 W/m2
09:21 52.0 °F 41.7 °F 30.23 in SSW 7.0 mph 13.0 mph 68 % 0.00 in 410 W/m2
09:26 52.3 °F 42.1 °F 30.23 in SSW 7.0 mph 13.0 mph 68 % 0.00 in 417 W/m2
09:31 52.7 °F 42.4 °F 30.23 in SSW 6.0 mph 12.0 mph 68 % 0.00 in 415 W/m2
09:36 52.9 °F 43.0 °F 30.23 in South 6.0 mph 12.0 mph 69 % 0.00 in 422 W/m2
09:41 53.1 °F 43.5 °F 30.23 in South 6.0 mph 11.0 mph 70 % 0.00 in 436 W/m2
09:46 53.4 °F 43.9 °F 30.23 in South 5.0 mph 9.0 mph 70 % 0.00 in 455 W/m2
09:51 53.8 °F 43.5 °F 30.22 in South 6.0 mph 12.0 mph 68 % 0.00 in 462 W/m2
09:56 54.1 °F 43.4 °F 30.22 in South 7.0 mph 12.0 mph 67 % 0.00 in 446 W/m2
10:01 54.1 °F 43.4 °F 30.22 in SSE 6.0 mph 10.0 mph 67 % 0.00 in 480 W/m2
10:06 54.3 °F 44.0 °F 30.22 in South 6.0 mph 11.0 mph 68 % 0.00 in 504 W/m2
10:12 54.9 °F 43.7 °F 30.22 in SSW 9.0 mph 21.0 mph 66 % 0.00 in 510 W/m2
10:17 55.0 °F 43.5 °F 30.22 in SSW 12.0 mph 21.0 mph 65 % 0.00 in 510 W/m2
10:22 55.0 °F 43.1 °F 30.22 in SSW 11.0 mph 20.0 mph 64 % 0.00 in 490 W/m2
10:27 55.4 °F 43.4 °F 30.22 in SSW 10.0 mph 20.0 mph 64 % 0.00 in 536 W/m2
10:32 55.6 °F 43.2 °F 30.22 in SSW 10.0 mph 20.0 mph 63 % 0.00 in 571 W/m2
10:37 55.8 °F 43.3 °F 30.22 in SSW 12.0 mph 21.0 mph 63 % 0.00 in 538 W/m2
10:42 55.8 °F 42.5 °F 30.21 in South 12.0 mph 21.0 mph 61 % 0.00 in 573 W/m2
10:47 55.9 °F 42.2 °F 30.21 in South 11.0 mph 20.0 mph 60 % 0.00 in 585 W/m2
10:52 56.3 °F 43.0 °F 30.21 in SSW 11.0 mph 18.0 mph 61 % 0.00 in 591 W/m2
10:57 56.8 °F 43.5 °F 30.21 in SSW 10.0 mph 19.0 mph 61 % 0.00 in 608 W/m2
11:02 57.0 °F 42.4 °F 30.21 in SSW 11.0 mph 20.0 mph 58 % 0.00 in 610 W/m2
11:07 57.0 °F 42.4 °F 30.21 in SSW 12.0 mph 20.0 mph 58 % 0.00 in 624 W/m2
11:12 57.2 °F 42.5 °F 30.21 in SSW 12.0 mph 20.0 mph 58 % 0.00 in 647 W/m2
11:17 57.4 °F 42.7 °F 30.21 in SSW 11.0 mph 19.0 mph 58 % 0.00 in 587 W/m2
11:22 57.6 °F 42.4 °F 30.21 in SW 11.0 mph 27.0 mph 57 % 0.00 in 628 W/m2
11:27 57.4 °F 41.8 °F 30.21 in SSW 12.0 mph 27.0 mph 56 % 0.00 in 643 W/m2
11:32 57.6 °F 42.4 °F 30.20 in SSW 12.0 mph 27.0 mph 57 % 0.00 in 652 W/m2
11:37 57.7 °F 42.6 °F 30.20 in SW 11.0 mph 16.0 mph 57 % 0.00 in 643 W/m2
11:42 57.9 °F 41.8 °F 30.20 in SW 11.0 mph 19.0 mph 55 % 0.00 in 638 W/m2
11:47 57.9 °F 42.3 °F 30.20 in SW 11.0 mph 19.0 mph 56 % 0.00 in 670 W/m2
11:52 58.3 °F 41.7 °F 30.20 in SSW 11.0 mph 19.0 mph 54 % 0.00 in 636 W/m2
11:57 58.5 °F 41.9 °F 30.20 in SSW 12.0 mph 20.0 mph 54 % 0.00 in 640 W/m2
12:02 58.6 °F 42.5 °F 30.19 in SSW 11.0 mph 20.0 mph 55 % 0.00 in 628 W/m2
12:07 58.8 °F 41.7 °F 30.19 in SSW 10.0 mph 21.0 mph 53 % 0.00 in 566 W/m2
12:12 58.6 °F 41.5 °F 30.19 in SSW 12.0 mph 22.0 mph 53 % 0.00 in 564 W/m2
12:17 58.8 °F 42.2 °F 30.19 in SW 11.0 mph 22.0 mph 54 % 0.00 in 605 W/m2
12:22 58.8 °F 42.2 °F 30.19 in SW 11.0 mph 20.0 mph 54 % 0.00 in 640 W/m2
12:27 58.8 °F 43.1 °F 30.19 in SW 12.0 mph 19.0 mph 56 % 0.00 in 610 W/m2
12:32 58.8 °F 42.7 °F 30.19 in SW 11.0 mph 19.0 mph 55 % 0.00 in 605 W/m2
12:37 58.8 °F 43.6 °F 30.19 in SSW 11.0 mph 19.0 mph 57 % 0.00 in 613 W/m2
12:42 58.8 °F 43.1 °F 30.18 in SSW 11.0 mph 20.0 mph 56 % 0.00 in 656 W/m2
12:47 58.6 °F 42.5 °F 30.18 in SSW 13.0 mph 27.0 mph 55 % 0.00 in 626 W/m2
12:52 58.5 °F 43.3 °F 30.18 in SSW 13.0 mph 27.0 mph 57 % 0.00 in 306 W/m2
12:57 58.3 °F 43.6 °F 30.18 in SW 10.0 mph 19.0 mph 58 % 0.00 in 316 W/m2
13:02 58.6 °F 43.9 °F 30.18 in SW 10.0 mph 18.0 mph 58 % 0.00 in 773 W/m2
13:07 59.4 °F 43.7 °F 30.18 in SW 11.0 mph 18.0 mph 56 % 0.00 in 735 W/m2
13:13 59.7 °F 42.1 °F 30.18 in SSW 13.0 mph 28.0 mph 52 % 0.00 in 721 W/m2
13:18 59.7 °F 41.0 °F 30.17 in SSW 14.0 mph 28.0 mph 50 % 0.00 in 735 W/m2
13:23 60.1 °F 40.3 °F 30.18 in SW 15.0 mph 27.0 mph 48 % 0.00 in 656 W/m2
13:28 59.9 °F 40.1 °F 30.17 in SSW 16.0 mph 27.0 mph 48 % 0.00 in 677 W/m2
13:33 60.1 °F 40.8 °F 30.17 in SSW 13.0 mph 24.0 mph 49 % 0.00 in 722 W/m2
13:38 60.4 °F 41.7 °F 30.17 in SSW 10.0 mph 24.0 mph 50 % 0.00 in 701 W/m2
13:43 60.6 °F 41.9 °F 30.17 in South 10.0 mph 20.0 mph 50 % 0.00 in 663 W/m2
13:48 60.6 °F 41.3 °F 30.17 in South 12.0 mph 20.0 mph 49 % 0.00 in 675 W/m2
13:53 60.6 °F 41.3 °F 30.17 in South 12.0 mph 21.0 mph 49 % 0.00 in 670 W/m2
13:58 60.6 °F 41.3 °F 30.17 in SSW 12.0 mph 22.0 mph 49 % 0.00 in 682 W/m2
14:03 60.8 °F 41.5 °F 30.17 in South 11.0 mph 22.0 mph 49 % 0.00 in 722 W/m2
14:08 61.2 °F 41.8 °F 30.17 in SSW 11.0 mph 19.0 mph 49 % 0.00 in 659 W/m2
14:13 61.2 °F 40.8 °F 30.17 in SW 12.0 mph 22.0 mph 47 % 0.00 in 691 W/m2
14:18 60.8 °F 41.0 °F 30.17 in SSW 13.0 mph 23.0 mph 48 % 0.00 in 708 W/m2
14:23 60.8 °F 41.0 °F 30.16 in SW 12.0 mph 23.0 mph 48 % 0.00 in 638 W/m2
14:28 61.0 °F 41.1 °F 30.16 in SW 11.0 mph 22.0 mph 48 % 0.00 in 664 W/m2
14:33 60.8 °F 41.0 °F 30.16 in SSW 12.0 mph 22.0 mph 48 % 0.00 in 691 W/m2
14:38 61.2 °F 42.4 °F 30.16 in SSW 10.0 mph 18.0 mph 50 % 0.00 in 647 W/m2
14:43 61.5 °F 41.6 °F 30.16 in South 9.0 mph 19.0 mph 48 % 0.00 in 617 W/m2
14:48 61.5 °F 42.7 °F 30.15 in SSW 11.0 mph 20.0 mph 50 % 0.00 in 555 W/m2
14:53 61.7 °F 42.3 °F 30.16 in SSW 11.0 mph 22.0 mph 49 % 0.00 in 652 W/m2
14:58 61.5 °F 42.2 °F 30.15 in SSW 11.0 mph 22.0 mph 49 % 0.00 in 605 W/m2
15:03 61.5 °F 42.2 °F 30.15 in SSW 10.0 mph 20.0 mph 49 % 0.00 in 582 W/m2
15:08 61.5 °F 41.1 °F 30.16 in SW 12.0 mph 24.0 mph 47 % 0.00 in 559 W/m2
15:13 61.3 °F 42.0 °F 30.15 in SW 13.0 mph 24.0 mph 49 % 0.00 in 570 W/m2
15:18 61.3 °F 42.0 °F 30.15 in SW 12.0 mph 22.0 mph 49 % 0.00 in 596 W/m2
15:23 61.7 °F 41.3 °F 30.15 in SW 10.0 mph 20.0 mph 47 % 0.00 in 550 W/m2
15:28 61.9 °F 42.5 °F 30.15 in SW 10.0 mph 19.0 mph 49 % 0.00 in 571 W/m2
15:33 61.9 °F 43.0 °F 30.15 in SSW 11.0 mph 19.0 mph 50 % 0.00 in 580 W/m2
15:38 61.9 °F 43.0 °F 30.15 in SSW 11.0 mph 19.0 mph 50 % 0.00 in 536 W/m2
15:43 61.9 °F 43.0 °F 30.14 in SW 10.0 mph 19.0 mph 50 % 0.00 in 478 W/m2
15:48 61.5 °F 41.6 °F 30.15 in SW 12.0 mph 24.0 mph 48 % 0.00 in 461 W/m2
15:53 61.3 °F 42.0 °F 30.14 in SW 13.0 mph 24.0 mph 49 % 0.00 in 438 W/m2
15:58 61.3 °F 42.0 °F 30.14 in SW 11.0 mph 21.0 mph 49 % 0.00 in 390 W/m2
16:03 61.3 °F 42.0 °F 30.14 in SW 11.0 mph 20.0 mph 49 % 0.00 in 345 W/m2
16:08 61.3 °F 41.5 °F 30.14 in SW 11.0 mph 21.0 mph 48 % 0.00 in 454 W/m2
16:13 61.3 °F 41.5 °F 30.14 in SW 11.0 mph 22.0 mph 48 % 0.00 in 441 W/m2
16:18 61.2 °F 40.8 °F 30.14 in SW 12.0 mph 23.0 mph 47 % 0.00 in 376 W/m2
16:23 61.0 °F 40.6 °F 30.13 in SW 13.0 mph 23.0 mph 47 % 0.00 in 390 W/m2
16:24 61.0 °F 40.6 °F 30.13 in SW 13.0 mph 23.0 mph 47 % 0.00 in 390 W/m2
16:29 61.0 °F 40.6 °F 30.13 in SW 12.0 mph 23.0 mph 47 % 0.00 in 396 W/m2
16:34 61.0 °F 40.6 °F 30.13 in SW 12.0 mph 22.0 mph 47 % 0.00 in 434 W/m2
16:39 61.0 °F 41.1 °F 30.12 in SW 12.0 mph 22.0 mph 48 % 0.00 in 385 W/m2
16:44 61.0 °F 40.6 °F 30.13 in SW 12.0 mph 21.0 mph 47 % 0.00 in 318 W/m2
16:49 61.0 °F 40.0 °F 30.13 in SW 12.0 mph 22.0 mph 46 % 0.00 in 294 W/m2
16:54 60.6 °F 40.3 °F 30.12 in SW 11.0 mph 22.0 mph 47 % 0.00 in 220 W/m2
16:59 60.4 °F 40.6 °F 30.12 in SW 9.0 mph 20.0 mph 48 % 0.00 in 253 W/m2
17:04 60.4 °F 41.2 °F 30.12 in SW 8.0 mph 14.0 mph 49 % 0.00 in 294 W/m2
17:09 60.4 °F 40.1 °F 30.12 in SSW 11.0 mph 22.0 mph 47 % 0.00 in 378 W/m2
17:14 60.6 °F 41.3 °F 30.12 in SSW 11.0 mph 22.0 mph 49 % 0.00 in 339 W/m2
17:19 60.6 °F 40.3 °F 30.11 in SSW 11.0 mph 22.0 mph 47 % 0.00 in 276 W/m2
17:24 60.4 °F 40.6 °F 30.11 in SSW 11.0 mph 22.0 mph 48 % 0.00 in 197 W/m2
17:29 60.3 °F 40.5 °F 30.11 in SSW 11.0 mph 21.0 mph 48 % 0.00 in 162 W/m2
17:34 59.9 °F 41.2 °F 30.10 in SSW 11.0 mph 21.0 mph 50 % 0.00 in 128 W/m2
17:39 59.7 °F 41.0 °F 30.11 in SSW 10.0 mph 19.0 mph 50 % 0.00 in 200 W/m2
17:44 59.7 °F 41.0 °F 30.10 in SSW 11.0 mph 19.0 mph 50 % 0.00 in 239 W/m2
17:49 59.7 °F 41.0 °F 30.11 in South 9.0 mph 19.0 mph 50 % 0.00 in 174 W/m2
17:54 60.1 °F 41.9 °F 30.10 in SSW 8.0 mph 18.0 mph 51 % 0.00 in 221 W/m2
17:59 59.9 °F 41.7 °F 30.11 in SSW 9.0 mph 16.0 mph 51 % 0.00 in 241 W/m2
18:04 59.9 °F 41.2 °F 30.11 in SSW 9.0 mph 16.0 mph 50 % 0.00 in 202 W/m2
18:09 59.7 °F 40.5 °F 30.11 in SW 10.0 mph 18.0 mph 49 % 0.00 in 160 W/m2
18:14 59.5 °F 41.4 °F 30.11 in SSW 11.0 mph 21.0 mph 51 % 0.00 in 181 W/m2
18:19 59.5 °F 41.4 °F 30.11 in SSW 10.0 mph 21.0 mph 51 % 0.00 in 213 W/m2
18:24 59.4 °F 41.7 °F 30.11 in SSW 9.0 mph 20.0 mph 52 % 0.00 in 116 W/m2
18:29 59.2 °F 41.6 °F 30.11 in SW 10.0 mph 19.0 mph 52 % 0.00 in 127 W/m2
18:34 59.0 °F 42.4 °F 30.11 in SW 10.0 mph 19.0 mph 54 % 0.00 in 121 W/m2
18:39 58.8 °F 42.7 °F 30.11 in SSW 9.0 mph 15.0 mph 55 % 0.00 in 100 W/m2
18:44 58.6 °F 42.5 °F 30.11 in SSW 8.0 mph 18.0 mph 55 % 0.00 in 81 W/m2
18:49 58.5 °F 42.8 °F 30.11 in SSW 8.0 mph 18.0 mph 56 % 0.00 in 65 W/m2
18:54 58.1 °F 42.9 °F 30.11 in SSW 10.0 mph 21.0 mph 57 % 0.00 in 47 W/m2
18:59 57.7 °F 43.1 °F 30.11 in SSW 12.0 mph 21.0 mph 58 % 0.00 in 37 W/m2
19:04 57.7 °F 43.5 °F 30.11 in SSW 11.0 mph 20.0 mph 59 % 0.00 in 30 W/m2
19:09 57.4 °F 43.6 °F 30.12 in SW 9.0 mph 16.0 mph 60 % 0.00 in 25 W/m2
19:14 57.2 °F 43.4 °F 30.12 in SW 9.0 mph 14.0 mph 60 % 0.00 in 18 W/m2
19:19 57.0 °F 43.3 °F 30.12 in SW 9.0 mph 16.0 mph 60 % 0.00 in 14 W/m2
19:24 56.8 °F 43.5 °F 30.12 in SW 8.0 mph 16.0 mph 61 % 0.00 in 12 W/m2
19:29 56.7 °F 43.4 °F 30.12 in SW 7.0 mph 13.0 mph 61 % 0.00 in 9 W/m2
19:34 56.7 °F 43.4 °F 30.12 in SW 8.0 mph 14.0 mph 61 % 0.00 in 7 W/m2
19:39 56.5 °F 43.6 °F 30.12 in SSW 9.0 mph 18.0 mph 62 % 0.00 in 5 W/m2
19:40 56.5 °F 43.6 °F 30.12 in SSW 9.0 mph 18.0 mph 62 % 0.00 in 5 W/m2
19:45 56.1 °F 43.3 °F 30.12 in SSW 9.0 mph 18.0 mph 62 % 0.00 in 0 W/m2
19:50 56.1 °F 43.3 °F 30.12 in SW 8.0 mph 18.0 mph 62 % 0.00 in 0 W/m2
19:55 55.9 °F 43.5 °F 30.12 in SW 7.0 mph 11.0 mph 63 % 0.00 in 0 W/m2
20:00 55.8 °F 43.3 °F 30.12 in SW 6.0 mph 10.0 mph 63 % 0.00 in 0 W/m2
20:05 55.8 °F 43.3 °F 30.12 in SW 5.0 mph 10.0 mph 63 % 0.00 in 0 W/m2
20:10 55.6 °F 43.6 °F 30.12 in SSW 6.0 mph 10.0 mph 64 % 0.00 in 0 W/m2
20:15 55.4 °F 43.8 °F 30.12 in SSW 5.0 mph 10.0 mph 65 % 0.00 in 0 W/m2
20:20 55.2 °F 43.7 °F 30.12 in SW 5.0 mph 11.0 mph 65 % 0.00 in 0 W/m2
20:25 55.2 °F 43.7 °F 30.12 in SW 5.0 mph 11.0 mph 65 % 0.00 in 0 W/m2
20:30 55.0 °F 43.5 °F 30.13 in SSW 5.0 mph 9.0 mph 65 % 0.00 in 0 W/m2
20:35 55.0 °F 43.5 °F 30.13 in SSW 5.0 mph 9.0 mph 65 % 0.00 in 0 W/m2
20:40 55.0 °F 43.5 °F 30.13 in SW 5.0 mph 9.0 mph 65 % 0.00 in 0 W/m2
20:45 54.9 °F 43.7 °F 30.13 in SW 4.0 mph 8.0 mph 66 % 0.00 in 0 W/m2
20:50 54.9 °F 43.7 °F 30.13 in SW 4.0 mph 9.0 mph 66 % 0.00 in 0 W/m2
20:55 54.7 °F 43.5 °F 30.13 in SW 5.0 mph 9.0 mph 66 % 0.00 in 0 W/m2
21:00 54.5 °F 43.4 °F 30.13 in SSW 5.0 mph 9.0 mph 66 % 0.00 in 0 W/m2
21:05 54.3 °F 43.6 °F 30.13 in SSW 5.0 mph 9.0 mph 67 % 0.00 in 0 W/m2
21:10 54.1 °F 43.4 °F 30.13 in SW 5.0 mph 11.0 mph 67 % 0.00 in 0 W/m2
21:15 54.1 °F 43.4 °F 30.13 in SW 6.0 mph 11.0 mph 67 % 0.00 in 0 W/m2
21:20 54.1 °F 43.4 °F 30.13 in SW 4.0 mph 10.0 mph 67 % 0.00 in 0 W/m2
21:25 54.0 °F 43.6 °F 30.13 in SW 2.0 mph 6.0 mph 68 % 0.00 in 0 W/m2
21:30 54.0 °F 43.6 °F 30.13 in SW 2.0 mph 7.0 mph 68 % 0.00 in 0 W/m2
21:35 53.8 °F 43.5 °F 30.13 in SSW 4.0 mph 10.0 mph 68 % 0.00 in 0 W/m2
21:40 53.8 °F 43.8 °F 30.13 in SSW 6.0 mph 11.0 mph 69 % 0.00 in 0 W/m2
21:45 53.8 °F 43.8 °F 30.13 in SW 7.0 mph 13.0 mph 69 % 0.00 in 0 W/m2
21:50 53.8 °F 43.8 °F 30.13 in SW 7.0 mph 13.0 mph 69 % 0.00 in 0 W/m2
21:55 53.6 °F 43.7 °F 30.12 in SSW 7.0 mph 12.0 mph 69 % 0.00 in 0 W/m2
22:00 53.4 °F 43.9 °F 30.12 in SSW 7.0 mph 12.0 mph 70 % 0.00 in 0 W/m2
22:05 53.4 °F 43.9 °F 30.12 in SSW 7.0 mph 12.0 mph 70 % 0.00 in 0 W/m2
22:10 53.2 °F 44.1 °F 30.12 in SSW 8.0 mph 12.0 mph 71 % 0.00 in 0 W/m2
22:16 53.2 °F 44.1 °F 30.12 in SSW 7.0 mph 12.0 mph 71 % 0.00 in 0 W/m2
22:21 53.2 °F 44.1 °F 30.12 in SSW 7.0 mph 12.0 mph 71 % 0.00 in 0 W/m2
22:26 53.2 °F 44.4 °F 30.13 in SW 8.0 mph 14.0 mph 72 % 0.00 in 0 W/m2
22:31 53.2 °F 44.4 °F 30.13 in SW 7.0 mph 14.0 mph 72 % 0.00 in 0 W/m2
22:36 53.2 °F 44.4 °F 30.13 in SSW 7.0 mph 12.0 mph 72 % 0.00 in 0 W/m2
22:41 53.1 °F 44.3 °F 30.12 in SSW 7.0 mph 12.0 mph 72 % 0.00 in 0 W/m2
22:46 53.1 °F 44.6 °F 30.13 in SW 6.0 mph 11.0 mph 73 % 0.00 in 0 W/m2
22:51 53.1 °F 44.6 °F 30.13 in SW 6.0 mph 10.0 mph 73 % 0.00 in 0 W/m2
22:56 52.9 °F 44.5 °F 30.13 in SSW 6.0 mph 10.0 mph 73 % 0.00 in 0 W/m2
23:01 52.9 °F 44.8 °F 30.13 in SSW 6.0 mph 10.0 mph 74 % 0.00 in 0 W/m2
23:06 52.9 °F 44.8 °F 30.13 in SW 6.0 mph 11.0 mph 74 % 0.00 in 0 W/m2
23:11 52.9 °F 44.8 °F 30.13 in SW 6.0 mph 11.0 mph 74 % 0.00 in 0 W/m2
23:16 52.9 °F 45.2 °F 30.13 in SW 5.0 mph 8.0 mph 75 % 0.00 in 0 W/m2
23:21 52.9 °F 45.2 °F 30.13 in SW 5.0 mph 8.0 mph 75 % 0.00 in 0 W/m2
23:26 52.7 °F 45.3 °F 30.13 in SW 5.0 mph 8.0 mph 76 % 0.00 in 0 W/m2
23:31 52.5 °F 45.2 °F 30.13 in SSW 5.0 mph 8.0 mph 76 % 0.00 in 0 W/m2
23:36 52.5 °F 45.2 °F 30.13 in SW 4.0 mph 8.0 mph 76 % 0.00 in 0 W/m2
23:41 52.5 °F 45.2 °F 30.14 in SW 3.0 mph 6.0 mph 76 % 0.00 in 0 W/m2
23:46 52.5 °F 45.2 °F 30.14 in SSW 1.0 mph 6.0 mph 76 % 0.00 in 0 W/m2
23:51 52.5 °F 45.5 °F 30.14 in West 1.0 mph 4.0 mph 77 % 0.00 in 0 W/m2
23:56 52.5 °F 45.5 °F 30.14 in West 1.0 mph 5.0 mph 77 % 0.00 in 0 W/m2
Delerius-Weather
Compliments of Weather Underground - 2.25 mb

Data updates at regular intervals.